createdAt,value
2023-03-06T00:03:31.784Z,81.68
2023-03-06T00:13:33.629Z,81.58
2023-03-06T00:23:31.867Z,81.65
2023-03-06T00:33:33.172Z,81.12
2023-03-06T00:43:32.218Z,79.87
2023-03-06T00:53:34.368Z,80.19
2023-03-06T01:03:32.603Z,79.77
2023-03-06T01:13:32.897Z,80.64
2023-03-06T01:23:33.713Z,80.95
2023-03-06T01:33:33.274Z,79.46
2023-03-06T01:43:33.354Z,82.28
2023-03-06T01:53:33.737Z,83.36
2023-03-06T02:03:33.784Z,83.04
2023-03-06T02:13:34.221Z,80.88
2023-03-06T02:23:34.280Z,81.23
2023-03-06T02:33:34.619Z,81.86
2023-03-06T02:43:34.679Z,81.45
2023-03-06T02:53:34.969Z,81.45
2023-03-06T03:03:35.022Z,80.68
2023-03-06T03:13:35.419Z,80.47
2023-03-06T03:23:35.455Z,81.90
2023-03-06T03:33:35.786Z,83.40
2023-03-06T03:43:35.826Z,84.41
2023-03-06T03:53:37.182Z,85.29
2023-03-06T04:03:36.232Z,85.35
2023-03-06T04:13:36.532Z,86.23
2023-03-06T04:23:36.551Z,86.47
2023-03-06T04:33:36.909Z,87.25
2023-03-06T04:43:36.933Z,88.15
2023-03-06T04:53:37.267Z,88.26
2023-03-06T05:03:37.300Z,87.59
2023-03-06T05:13:37.747Z,87.42
2023-03-06T05:23:37.802Z,87.31
2023-03-06T05:33:38.209Z,87.84
2023-03-06T05:43:38.245Z,87.59
2023-03-06T05:53:38.715Z,87.48
2023-03-06T06:03:38.604Z,86.96
2023-03-06T06:13:41.929Z,89.13
2023-03-06T06:23:38.760Z,89.05
2023-03-06T06:33:39.014Z,86.57
2023-03-06T06:43:39.249Z,86.46
2023-03-06T06:53:39.495Z,86.88
2023-03-06T07:03:39.598Z,87.40
2023-03-06T07:13:39.659Z,86.53
2023-03-06T07:23:39.904Z,86.21
2023-03-06T07:33:40.236Z,84.78
2023-03-06T07:43:40.263Z,82.34
2023-03-06T07:53:40.605Z,79.91
2023-03-06T08:03:40.649Z,80.19
2023-03-06T08:13:40.786Z,78.03
2023-03-06T08:23:40.820Z,78.69
2023-03-06T08:33:41.135Z,79.52
2023-03-06T08:43:41.182Z,78.52
2023-03-06T08:53:43.645Z,82.43
2023-03-06T09:03:41.510Z,82.50
2023-03-06T09:13:41.873Z,81.11
2023-03-06T09:23:41.928Z,79.61
2023-03-06T09:33:42.255Z,77.51
2023-03-06T09:43:42.294Z,76.47
2023-03-06T09:53:42.630Z,75.95
2023-03-06T10:03:42.658Z,76.33
2023-03-06T10:13:42.991Z,75.63
2023-03-06T10:23:43.023Z,72.33
2023-03-06T10:33:43.365Z,68.82
2023-03-06T10:43:43.421Z,61.96
2023-03-06T10:53:43.749Z,60.41
2023-03-06T11:03:43.780Z,60.82
2023-03-06T11:13:44.209Z,58.26
2023-03-06T11:23:44.239Z,58.68
2023-03-06T11:33:44.594Z,59.01
2023-03-06T11:43:44.631Z,57.47
2023-03-06T11:53:44.951Z,59.28
2023-03-06T12:03:44.986Z,59.69
2023-03-06T12:13:45.316Z,58.97
2023-03-06T12:23:45.330Z,58.63
2023-03-06T12:33:45.585Z,58.81
2023-03-06T12:43:45.809Z,58.14
2023-03-06T12:53:48.067Z,57.62
2023-03-06T13:03:46.301Z,56.95
2023-03-06T13:13:47.683Z,57.54
2023-03-06T13:23:46.709Z,58.34
2023-03-06T13:33:47.054Z,65.08
2023-03-06T13:43:47.088Z,56.00
2023-03-06T13:53:47.381Z,55.15
2023-03-06T14:03:47.428Z,56.72
2023-03-06T14:13:47.967Z,55.51
2023-03-06T14:23:47.805Z,57.18
2023-03-06T14:33:48.210Z,56.31
2023-03-06T14:43:48.277Z,56.23
2023-03-06T14:53:48.582Z,57.29
2023-03-06T15:03:49.621Z,57.24
2023-03-06T15:13:48.945Z,57.16
2023-03-06T15:23:49.066Z,57.50
2023-03-06T15:33:49.202Z,58.42
2023-03-06T15:43:49.250Z,58.84
2023-03-06T15:53:50.255Z,60.44
2023-03-06T16:03:49.683Z,61.42
2023-03-06T16:13:49.768Z,61.94
2023-03-06T16:23:50.075Z,61.66
2023-03-06T16:33:52.161Z,62.72
2023-03-06T16:43:50.411Z,63.57
2023-03-06T16:53:50.700Z,62.95
2023-03-06T17:03:50.968Z,62.75
2023-03-06T17:13:51.162Z,64.32
2023-03-06T17:23:51.113Z,64.64
2023-03-06T17:33:51.706Z,63.81
2023-03-06T17:43:51.572Z,63.74
2023-03-06T17:53:52.077Z,63.84
2023-03-06T18:03:51.982Z,61.46
2023-03-06T18:13:54.169Z,63.43
2023-03-06T18:23:52.196Z,59.50
2023-03-06T18:33:52.571Z,60.09
2023-03-06T18:43:52.770Z,61.85
2023-03-06T18:53:53.091Z,59.80
2023-03-06T19:03:53.236Z,60.94
2023-03-06T19:14:08.190Z,59.08
2023-03-06T19:23:59.621Z,61.05
2023-03-06T19:33:53.643Z,61.46
2023-03-06T19:43:53.899Z,59.19
2023-03-06T19:53:58.125Z,58.04
2023-03-06T20:03:54.166Z,58.87
2023-03-06T20:13:54.489Z,57.84
2023-03-06T20:23:54.490Z,57.73
2023-03-06T20:33:55.777Z,58.36
2023-03-06T20:43:54.946Z,59.94
2023-03-06T20:53:55.339Z,56.39
2023-03-06T21:03:55.252Z,58.25
2023-03-06T21:13:59.067Z,60.46
2023-03-06T21:23:55.779Z,58.59
2023-03-06T21:33:55.797Z,60.79
2023-03-06T21:43:55.837Z,59.34
2023-03-06T21:53:57.080Z,59.86
2023-03-06T22:03:56.325Z,59.06
2023-03-06T22:13:56.622Z,59.03
2023-03-06T22:23:56.858Z,62.16
2023-03-06T22:33:57.102Z,64.03
2023-03-06T22:43:57.329Z,64.27
2023-03-06T22:53:58.596Z,63.57
2023-03-06T23:03:57.862Z,65.37
2023-03-06T23:13:57.939Z,65.08
2023-03-06T23:23:58.184Z,65.73
2023-03-06T23:33:58.529Z,65.73
2023-03-06T23:43:58.558Z,66.54
2023-03-06T23:53:58.898Z,68.26
